sensor_id;sensor_type;location;lat;lon;timestamp;pressure;altitude;pressure_sealevel;temperature;humidity
74921;BME280;63483;47.384;8.860;2023-04-06T00:01:10;94751.06;;;0.23;38.88
74921;BME280;63483;47.384;8.860;2023-04-06T00:03:36;94745.91;;;0.23;39.27
74921;BME280;63483;47.384;8.860;2023-04-06T00:06:02;94746.16;;;0.19;39.20
74921;BME280;63483;47.384;8.860;2023-04-06T00:08:28;94746.34;;;0.16;39.13
74921;BME280;63483;47.384;8.860;2023-04-06T00:10:54;94750.09;;;0.12;39.27
74921;BME280;63483;47.384;8.860;2023-04-06T00:13:19;94735.06;;;0.06;38.74
74921;BME280;63483;47.384;8.860;2023-04-06T00:15:45;94739.28;;;-0.04;39.35
74921;BME280;63483;47.384;8.860;2023-04-06T00:18:10;94738.44;;;-0.05;38.84
74921;BME280;63483;47.384;8.860;2023-04-06T00:20:36;94733.34;;;-0.18;39.94
74921;BME280;63483;47.384;8.860;2023-04-06T00:23:01;94732.53;;;-0.18;39.54
74921;BME280;63483;47.384;8.860;2023-04-06T00:25:26;94737.31;;;-0.73;38.14
74921;BME280;63483;47.384;8.860;2023-04-06T00:27:52;94740.06;;;-1.13;37.78
74921;BME280;63483;47.384;8.860;2023-04-06T00:30:17;94731.06;;;-1.58;37.71
74921;BME280;63483;47.384;8.860;2023-04-06T00:32:43;94732.69;;;-1.82;37.86
74921;BME280;63483;47.384;8.860;2023-04-06T00:35:08;94732.47;;;-2.05;39.08
74921;BME280;63483;47.384;8.860;2023-04-06T00:37:34;94735.50;;;-2.26;38.88
74921;BME280;63483;47.384;8.860;2023-04-06T00:39:59;94731.66;;;-2.05;39.63
74921;BME280;63483;47.384;8.860;2023-04-06T00:42:25;94732.97;;;-2.40;38.63
74921;BME280;63483;47.384;8.860;2023-04-06T00:44:55;94734.78;;;-2.55;39.47
74921;BME280;63483;47.384;8.860;2023-04-06T00:47:21;94724.66;;;-2.71;39.30
74921;BME280;63483;47.384;8.860;2023-04-06T00:49:48;94724.97;;;-2.48;39.81
74921;BME280;63483;47.384;8.860;2023-04-06T00:52:13;94730.41;;;-2.53;38.96
74921;BME280;63483;47.384;8.860;2023-04-06T00:54:38;94726.88;;;-2.65;39.54
74921;BME280;63483;47.384;8.860;2023-04-06T00:57:04;94727.59;;;-2.63;39.47
74921;BME280;63483;47.384;8.860;2023-04-06T00:59:29;94728.06;;;-2.70;39.60
74921;BME280;63483;47.384;8.860;2023-04-06T01:01:55;94717.75;;;-2.83;39.51
74921;BME280;63483;47.384;8.860;2023-04-06T01:04:21;94714.78;;;-3.04;38.60
74921;BME280;63483;47.384;8.860;2023-04-06T01:06:48;94724.06;;;-3.16;39.17
74921;BME280;63483;47.384;8.860;2023-04-06T01:09:14;94716.69;;;-3.08;39.75
74921;BME280;63483;47.384;8.860;2023-04-06T01:11:39;94712.84;;;-3.01;39.46
74921;BME280;63483;47.384;8.860;2023-04-06T01:14:05;94714.31;;;-2.97;40.25
74921;BME280;63483;47.384;8.860;2023-04-06T01:16:30;94714.41;;;-2.71;42.64
74921;BME280;63483;47.384;8.860;2023-04-06T01:18:56;94714.97;;;-2.66;48.40
74921;BME280;63483;47.384;8.860;2023-04-06T01:21:21;94705.31;;;-2.89;41.95
74921;BME280;63483;47.384;8.860;2023-04-06T01:23:47;94705.72;;;-2.96;41.15
74921;BME280;63483;47.384;8.860;2023-04-06T01:26:12;94705.22;;;-3.15;40.71
74921;BME280;63483;47.384;8.860;2023-04-06T01:28:38;94704.47;;;-3.32;40.63
74921;BME280;63483;47.384;8.860;2023-04-06T01:31:05;94704.41;;;-3.44;40.92
74921;BME280;63483;47.384;8.860;2023-04-06T01:33:30;94703.13;;;-3.52;41.17
74921;BME280;63483;47.384;8.860;2023-04-06T01:35:56;94700.28;;;-3.47;42.20
74921;BME280;63483;47.384;8.860;2023-04-06T01:38:21;94702.31;;;-3.67;41.03
74921;BME280;63483;47.384;8.860;2023-04-06T01:40:47;94695.72;;;-3.56;40.91
74921;BME280;63483;47.384;8.860;2023-04-06T01:43:12;94692.97;;;-3.39;41.59
74921;BME280;63483;47.384;8.860;2023-04-06T01:45:37;94688.84;;;-3.41;41.37
74921;BME280;63483;47.384;8.860;2023-04-06T01:48:03;94692.97;;;-3.53;41.25
74921;BME280;63483;47.384;8.860;2023-04-06T01:50:28;94690.63;;;-3.56;41.06
74921;BME280;63483;47.384;8.860;2023-04-06T01:52:54;94686.41;;;-3.43;42.54
74921;BME280;63483;47.384;8.860;2023-04-06T01:55:20;94684.75;;;-3.44;41.41
74921;BME280;63483;47.384;8.860;2023-04-06T01:57:45;94690.00;;;-3.18;42.56
74921;BME280;63483;47.384;8.860;2023-04-06T02:00:11;94688.56;;;-3.22;41.08
74921;BME280;63483;47.384;8.860;2023-04-06T02:02:36;94687.97;;;-3.40;40.26
74921;BME280;63483;47.384;8.860;2023-04-06T02:05:02;94685.00;;;-3.34;41.12
74921;BME280;63483;47.384;8.860;2023-04-06T02:07:27;94689.75;;;-3.28;41.74
74921;BME280;63483;47.384;8.860;2023-04-06T02:09:54;94684.84;;;-3.60;40.46
74921;BME280;63483;47.384;8.860;2023-04-06T02:12:20;94695.13;;;-3.18;46.22
74921;BME280;63483;47.384;8.860;2023-04-06T02:14:46;94690.75;;;-3.16;44.73
74921;BME280;63483;47.384;8.860;2023-04-06T02:17:11;94684.91;;;-3.33;42.57
74921;BME280;63483;47.384;8.860;2023-04-06T02:19:36;94692.22;;;-3.41;41.52
74921;BME280;63483;47.384;8.860;2023-04-06T02:22:02;94687.69;;;-3.64;41.44
74921;BME280;63483;47.384;8.860;2023-04-06T02:24:27;94693.53;;;-3.77;41.15
74921;BME280;63483;47.384;8.860;2023-04-06T02:26:52;94683.28;;;-3.77;42.49
74921;BME280;63483;47.384;8.860;2023-04-06T02:29:17;94683.47;;;-3.80;43.23
74921;BME280;63483;47.384;8.860;2023-04-06T02:31:43;94688.59;;;-3.80;42.55
74921;BME280;63483;47.384;8.860;2023-04-06T02:34:08;94692.06;;;-3.81;43.25
74921;BME280;63483;47.384;8.860;2023-04-06T02:36:36;94680.34;;;-3.85;41.92
74921;BME280;63483;47.384;8.860;2023-04-06T02:39:02;94682.41;;;-3.76;42.05
74921;BME280;63483;47.384;8.860;2023-04-06T02:41:28;94690.97;;;-3.91;41.44
74921;BME280;63483;47.384;8.860;2023-04-06T02:43:53;94680.91;;;-3.80;42.26
74921;BME280;63483;47.384;8.860;2023-04-06T02:46:19;94686.63;;;-3.33;42.33
74921;BME280;63483;47.384;8.860;2023-04-06T02:48:45;94678.44;;;-2.97;44.43
74921;BME280;63483;47.384;8.860;2023-04-06T02:51:10;94684.47;;;-2.70;43.98
74921;BME280;63483;47.384;8.860;2023-04-06T02:53:36;94685.75;;;-2.50;44.08
74921;BME280;63483;47.384;8.860;2023-04-06T02:56:01;94681.47;;;-2.37;43.96
74921;BME280;63483;47.384;8.860;2023-04-06T02:58:26;94683.97;;;-2.22;43.74
74921;BME280;63483;47.384;8.860;2023-04-06T03:00:52;94678.22;;;-2.13;43.30
74921;BME280;63483;47.384;8.860;2023-04-06T03:03:17;94675.88;;;-2.03;43.07
74921;BME280;63483;47.384;8.860;2023-04-06T03:05:42;94681.25;;;-1.94;43.12
74921;BME280;63483;47.384;8.860;2023-04-06T03:08:08;94680.09;;;-1.90;42.65
74921;BME280;63483;47.384;8.860;2023-04-06T03:10:33;94671.06;;;-1.82;42.57
74921;BME280;63483;47.384;8.860;2023-04-06T03:12:58;94673.22;;;-1.76;42.57
74921;BME280;63483;47.384;8.860;2023-04-06T03:15:24;94676.41;;;-1.73;42.29
74921;BME280;63483;47.384;8.860;2023-04-06T03:17:49;94666.75;;;-1.69;42.29
74921;BME280;63483;47.384;8.860;2023-04-06T03:20:15;94673.31;;;-1.65;42.39
74921;BME280;63483;47.384;8.860;2023-04-06T03:22:40;94663.75;;;-1.63;42.43
74921;BME280;63483;47.384;8.860;2023-04-06T03:25:06;94667.75;;;-1.59;42.28
74921;BME280;63483;47.384;8.860;2023-04-06T03:27:31;94666.75;;;-1.56;42.42
74921;BME280;63483;47.384;8.860;2023-04-06T03:29:57;94671.88;;;-1.56;42.10
74921;BME280;63483;47.384;8.860;2023-04-06T03:32:23;94673.53;;;-1.55;42.28
74921;BME280;63483;47.384;8.860;2023-04-06T03:34:48;94674.34;;;-1.55;41.78
74921;BME280;63483;47.384;8.860;2023-04-06T03:37:13;94665.94;;;-1.57;41.52
74921;BME280;63483;47.384;8.860;2023-04-06T03:39:39;94676.00;;;-1.53;41.63
74921;BME280;63483;47.384;8.860;2023-04-06T03:42:05;94672.47;;;-1.52;42.23
74921;BME280;63483;47.384;8.860;2023-04-06T03:44:30;94677.41;;;-1.49;42.10
74921;BME280;63483;47.384;8.860;2023-04-06T03:46:56;94672.88;;;-1.46;42.03
74921;BME280;63483;47.384;8.860;2023-04-06T03:49:21;94672.09;;;-1.46;41.94
74921;BME280;63483;47.384;8.860;2023-04-06T03:51:46;94680.50;;;-1.44;42.23
74921;BME280;63483;47.384;8.860;2023-04-06T03:54:12;94685.63;;;-1.44;42.00
74921;BME280;63483;47.384;8.860;2023-04-06T03:56:37;94686.44;;;-1.44;41.89
74921;BME280;63483;47.384;8.860;2023-04-06T03:59:02;94678.84;;;-1.45;41.66
74921;BME280;63483;47.384;8.860;2023-04-06T04:01:28;94680.50;;;-1.44;41.82
74921;BME280;63483;47.384;8.860;2023-04-06T04:03:53;94684.81;;;-1.45;41.46
74921;BME280;63483;47.384;8.860;2023-04-06T04:06:19;94685.84;;;-1.47;41.73
74921;BME280;63483;47.384;8.860;2023-04-06T04:08:44;94687.50;;;-1.46;41.51
74921;BME280;63483;47.384;8.860;2023-04-06T04:11:09;94686.66;;;-1.47;41.65
74921;BME280;63483;47.384;8.860;2023-04-06T04:13:35;94685.63;;;-1.44;41.63
74921;BME280;63483;47.384;8.860;2023-04-06T04:16:00;94684.94;;;-1.46;41.62
74921;BME280;63483;47.384;8.860;2023-04-06T04:18:25;94683.16;;;-1.46;41.63
74921;BME280;63483;47.384;8.860;2023-04-06T04:20:51;94680.50;;;-1.44;41.75
74921;BME280;63483;47.384;8.860;2023-04-06T04:23:16;94685.63;;;-1.44;41.58
74921;BME280;63483;47.384;8.860;2023-04-06T04:25:43;94682.34;;;-1.46;41.60
74921;BME280;63483;47.384;8.860;2023-04-06T04:28:08;94681.63;;;-1.48;41.56
74921;BME280;63483;47.384;8.860;2023-04-06T04:30:34;94688.53;;;-1.49;41.68
74921;BME280;63483;47.384;8.860;2023-04-06T04:32:59;94689.31;;;-1.48;41.83
74921;BME280;63483;47.384;8.860;2023-04-06T04:35:26;94685.84;;;-1.47;42.05
74921;BME280;63483;47.384;8.860;2023-04-06T04:37:51;94686.75;;;-1.48;41.67
74921;BME280;63483;47.384;8.860;2023-04-06T04:40:17;94685.84;;;-1.47;41.70
74921;BME280;63483;47.384;8.860;2023-04-06T04:42:42;94689.31;;;-1.48;41.39
74921;BME280;63483;47.384;8.860;2023-04-06T04:45:08;94692.44;;;-1.82;42.91
74921;BME280;63483;47.384;8.860;2023-04-06T04:47:33;94699.97;;;-2.32;37.99
74921;BME280;63483;47.384;8.860;2023-04-06T04:49:58;94699.41;;;-2.77;38.50
74921;BME280;63483;47.384;8.860;2023-04-06T04:52:24;94692.72;;;-3.07;38.79
74921;BME280;63483;47.384;8.860;2023-04-06T04:54:49;94697.88;;;-3.21;38.94
74921;BME280;63483;47.384;8.860;2023-04-06T04:57:15;94697.00;;;-3.49;39.17
74921;BME280;63483;47.384;8.860;2023-04-06T04:59:40;94692.63;;;-3.76;38.89
74921;BME280;63483;47.384;8.860;2023-04-06T05:02:05;94700.84;;;-3.99;39.30
74921;BME280;63483;47.384;8.860;2023-04-06T05:04:31;94697.53;;;-4.02;39.35
74921;BME280;63483;47.384;8.860;2023-04-06T05:07:07;94696.81;;;-4.04;39.55
74921;BME280;63483;47.384;8.860;2023-04-06T05:09:32;94701.22;;;-3.77;42.72
74921;BME280;63483;47.384;8.860;2023-04-06T05:11:59;94706.16;;;-3.59;50.92
74921;BME280;63483;47.384;8.860;2023-04-06T05:14:25;94708.50;;;-3.85;42.86
74921;BME280;63483;47.384;8.860;2023-04-06T05:16:50;94710.28;;;-4.16;40.80
74921;BME280;63483;47.384;8.860;2023-04-06T05:19:16;94706.78;;;-4.29;41.01
74921;BME280;63483;47.384;8.860;2023-04-06T05:21:41;94716.06;;;-4.43;41.20
74921;BME280;63483;47.384;8.860;2023-04-06T05:24:06;94711.00;;;-4.59;41.69
74921;BME280;63483;47.384;8.860;2023-04-06T05:26:32;94713.75;;;-4.47;42.60
74921;BME280;63483;47.384;8.860;2023-04-06T05:28:57;94715.75;;;-4.37;42.52
74921;BME280;63483;47.384;8.860;2023-04-06T05:31:24;94724.31;;;-4.38;42.63
74921;BME280;63483;47.384;8.860;2023-04-06T05:33:50;94724.31;;;-4.38;42.90
74921;BME280;63483;47.384;8.860;2023-04-06T05:36:15;94717.47;;;-4.53;41.92
74921;BME280;63483;47.384;8.860;2023-04-06T05:38:41;94722.38;;;-4.64;41.57
74921;BME280;63483;47.384;8.860;2023-04-06T05:41:06;94725.03;;;-4.66;41.87
74921;BME280;63483;47.384;8.860;2023-04-06T05:43:31;94732.44;;;-4.61;42.51
74921;BME280;63483;47.384;8.860;2023-04-06T05:45:57;94733.91;;;-4.57;43.44
74921;BME280;63483;47.384;8.860;2023-04-06T05:48:22;94736.41;;;-4.72;41.57
74921;BME280;63483;47.384;8.860;2023-04-06T05:50:50;94729.13;;;-4.63;43.72
74921;BME280;63483;47.384;8.860;2023-04-06T05:53:16;94735.06;;;-4.47;42.81
74921;BME280;63483;47.384;8.860;2023-04-06T05:55:41;94738.53;;;-4.48;42.17
74921;BME280;63483;47.384;8.860;2023-04-06T05:58:07;94733.41;;;-4.48;43.50
74921;BME280;63483;47.384;8.860;2023-04-06T06:00:32;94735.22;;;-4.50;43.10
74921;BME280;63483;47.384;8.860;2023-04-06T06:02:58;94729.78;;;-4.44;41.30
74921;BME280;63483;47.384;8.860;2023-04-06T06:05:23;94735.19;;;-4.04;45.43
74921;BME280;63483;47.384;8.860;2023-04-06T06:07:48;94736.78;;;-4.17;52.71
74921;BME280;63483;47.384;8.860;2023-04-06T06:10:14;94741.13;;;-4.33;44.70
74921;BME280;63483;47.384;8.860;2023-04-06T06:12:40;94736.88;;;-4.49;42.97
74921;BME280;63483;47.384;8.860;2023-04-06T06:15:05;94736.41;;;-4.72;42.55
74921;BME280;63483;47.384;8.860;2023-04-06T06:17:31;94737.22;;;-4.87;42.83
74921;BME280;63483;47.384;8.860;2023-04-06T06:19:57;94739.22;;;-5.08;43.50
74921;BME280;63483;47.384;8.860;2023-04-06T06:22:22;94739.47;;;-5.13;43.05
74921;BME280;63483;47.384;8.860;2023-04-06T06:24:48;94742.81;;;-5.12;43.60
74921;BME280;63483;47.384;8.860;2023-04-06T06:27:15;94744.31;;;-5.24;43.58
74921;BME280;63483;47.384;8.860;2023-04-06T06:29:40;94739.69;;;-5.33;44.16
74921;BME280;63483;47.384;8.860;2023-04-06T06:32:06;94743.28;;;-5.37;43.55
74921;BME280;63483;47.384;8.860;2023-04-06T06:34:31;94740.91;;;-5.40;43.59
74921;BME280;63483;47.384;8.860;2023-04-06T06:36:56;94740.06;;;-5.57;43.81
74921;BME280;63483;47.384;8.860;2023-04-06T06:39:22;94747.88;;;-5.60;44.84
74921;BME280;63483;47.384;8.860;2023-04-06T06:41:47;94744.09;;;-5.53;44.70
74921;BME280;63483;47.384;8.860;2023-04-06T06:44:13;94746.66;;;-5.53;44.57
74921;BME280;63483;47.384;8.860;2023-04-06T06:46:38;94742.31;;;-5.35;44.23
74921;BME280;63483;47.384;8.860;2023-04-06T06:49:03;94741.50;;;-5.35;44.25
74921;BME280;63483;47.384;8.860;2023-04-06T06:51:29;94741.34;;;-5.32;43.28
74921;BME280;63483;47.384;8.860;2023-04-06T06:53:54;94735.75;;;-5.23;43.51
74921;BME280;63483;47.384;8.860;2023-04-06T06:56:20;94742.50;;;-5.22;43.38
74921;BME280;63483;47.384;8.860;2023-04-06T06:58:45;94741.03;;;-5.26;44.12
74921;BME280;63483;47.384;8.860;2023-04-06T07:01:11;94740.72;;;-4.72;53.64
74921;BME280;63483;47.384;8.860;2023-04-06T07:03:36;94736.75;;;-4.78;48.99
74921;BME280;63483;47.384;8.860;2023-04-06T07:06:02;94737.41;;;-4.74;46.19
74921;BME280;63483;47.384;8.860;2023-04-06T07:08:27;94739.31;;;-4.78;44.13
74921;BME280;63483;47.384;8.860;2023-04-06T07:10:53;94740.66;;;-4.56;45.71
74921;BME280;63483;47.384;8.860;2023-04-06T07:13:21;94736.88;;;-4.49;44.36
74921;BME280;63483;47.384;8.860;2023-04-06T07:15:49;94736.56;;;-4.59;44.20
74921;BME280;63483;47.384;8.860;2023-04-06T07:18:14;94742.84;;;-4.64;45.01
74921;BME280;63483;47.384;8.860;2023-04-06T07:20:40;94741.81;;;-4.62;43.94
74921;BME280;63483;47.384;8.860;2023-04-06T07:23:05;94742.75;;;-4.32;45.03
74921;BME280;63483;47.384;8.860;2023-04-06T07:25:31;94743.78;;;-4.35;43.01
74921;BME280;63483;47.384;8.860;2023-04-06T07:27:56;94745.69;;;-4.08;53.82
74921;BME280;63483;47.384;8.860;2023-04-06T07:30:22;94753.50;;;-3.81;59.01
74921;BME280;63483;47.384;8.860;2023-04-06T07:32:48;94748.78;;;-3.29;57.05
74921;BME280;63483;47.384;8.860;2023-04-06T07:35:14;94750.09;;;-3.09;58.76
74921;BME280;63483;47.384;8.860;2023-04-06T07:37:39;94747.84;;;-2.72;59.37
74921;BME280;63483;47.384;8.860;2023-04-06T07:40:05;94747.97;;;-2.34;56.90
74921;BME280;63483;47.384;8.860;2023-04-06T07:42:31;94750.28;;;-2.29;48.33
74921;BME280;63483;47.384;8.860;2023-04-06T07:44:58;94743.84;;;-2.49;45.13
74921;BME280;63483;47.384;8.860;2023-04-06T07:47:23;94743.03;;;-2.37;42.94
74921;BME280;63483;47.384;8.860;2023-04-06T07:49:48;94756.16;;;-2.14;42.98
74921;BME280;63483;47.384;8.860;2023-04-06T07:52:14;94755.44;;;-2.16;42.58
74921;BME280;63483;47.384;8.860;2023-04-06T07:54:40;94757.22;;;-2.04;41.18
74921;BME280;63483;47.384;8.860;2023-04-06T07:57:06;94743.38;;;-1.88;43.61
74921;BME280;63483;47.384;8.860;2023-04-06T07:59:32;94747.06;;;-1.54;50.94
74921;BME280;63483;47.384;8.860;2023-04-06T08:01:57;94749.94;;;-1.07;48.18
74921;BME280;63483;47.384;8.860;2023-04-06T08:04:22;94747.69;;;-0.62;47.28
74921;BME280;63483;47.384;8.860;2023-04-06T08:06:48;94747.63;;;-0.25;46.51
74921;BME280;63483;47.384;8.860;2023-04-06T08:09:13;94743.66;;;0.07;45.69
74921;BME280;63483;47.384;8.860;2023-04-06T08:11:38;94747.84;;;0.43;44.70
74921;BME280;63483;47.384;8.860;2023-04-06T08:14:04;94744.09;;;0.70;43.40
74921;BME280;63483;47.384;8.860;2023-04-06T08:16:29;94750.91;;;0.94;43.31
74921;BME280;63483;47.384;8.860;2023-04-06T08:18:55;94748.66;;;1.12;42.28
74921;BME280;63483;47.384;8.860;2023-04-06T08:21:20;94749.69;;;1.32;41.33
74921;BME280;63483;47.384;8.860;2023-04-06T08:23:46;94748.28;;;1.50;40.67
74921;BME280;63483;47.384;8.860;2023-04-06T08:26:12;94750.09;;;1.71;40.46
74921;BME280;63483;47.384;8.860;2023-04-06T08:28:37;94752.38;;;1.85;38.78
74921;BME280;63483;47.384;8.860;2023-04-06T08:31:04;94744.09;;;2.03;40.02
74921;BME280;63483;47.384;8.860;2023-04-06T08:33:30;94746.63;;;2.14;39.45
74921;BME280;63483;47.384;8.860;2023-04-06T08:35:56;94746.75;;;2.34;40.07
74921;BME280;63483;47.384;8.860;2023-04-06T08:38:21;94747.13;;;2.50;39.78
74921;BME280;63483;47.384;8.860;2023-04-06T08:40:47;94744.47;;;2.61;38.11
74921;BME280;63483;47.384;8.860;2023-04-06T08:43:17;94741.75;;;2.63;36.38
74921;BME280;63483;47.384;8.860;2023-04-06T08:45:45;94746.66;;;2.66;37.49
74921;BME280;63483;47.384;8.860;2023-04-06T08:48:11;94748.78;;;2.82;36.83
74921;BME280;63483;47.384;8.860;2023-04-06T08:50:38;94747.06;;;2.92;36.30
74921;BME280;63483;47.384;8.860;2023-04-06T08:53:03;94748.75;;;3.03;35.46
74921;BME280;63483;47.384;8.860;2023-04-06T08:55:30;94750.66;;;3.11;35.17
74921;BME280;63483;47.384;8.860;2023-04-06T08:57:56;94748.13;;;3.20;33.65
74921;BME280;63483;47.384;8.860;2023-04-06T09:00:22;94747.19;;;3.31;33.10
74921;BME280;63483;47.384;8.860;2023-04-06T09:02:49;94747.00;;;3.44;32.73
74921;BME280;63483;47.384;8.860;2023-04-06T09:05:15;94749.47;;;3.56;32.68
74921;BME280;63483;47.384;8.860;2023-04-06T09:07:41;94750.41;;;3.64;33.10
74921;BME280;63483;47.384;8.860;2023-04-06T09:10:07;94745.13;;;3.76;32.84
74921;BME280;63483;47.384;8.860;2023-04-06T09:12:33;94741.31;;;3.80;32.25
74921;BME280;63483;47.384;8.860;2023-04-06T09:15:00;94740.22;;;3.72;32.92
74921;BME280;63483;47.384;8.860;2023-04-06T09:17:33;94742.69;;;3.84;33.49
74921;BME280;63483;47.384;8.860;2023-04-06T09:20:02;94731.78;;;3.90;32.66
74921;BME280;63483;47.384;8.860;2023-04-06T09:22:38;94747.16;;;4.01;32.66
74921;BME280;63483;47.384;8.860;2023-04-06T09:25:05;94745.66;;;4.08;32.84
74921;BME280;63483;47.384;8.860;2023-04-06T09:27:35;94736.66;;;4.22;32.47
74921;BME280;63483;47.384;8.860;2023-04-06T09:30:08;94740.50;;;4.28;31.83
74921;BME280;63483;47.384;8.860;2023-04-06T09:32:49;94735.97;;;4.30;32.36
74921;BME280;63483;47.384;8.860;2023-04-06T09:35:15;94742.91;;;4.39;33.13
74921;BME280;63483;47.384;8.860;2023-04-06T09:37:41;94735.00;;;4.51;32.30
74921;BME280;63483;47.384;8.860;2023-04-06T09:40:07;94738.94;;;4.55;31.98
74921;BME280;63483;47.384;8.860;2023-04-06T09:42:34;94736.88;;;4.58;32.01
74921;BME280;63483;47.384;8.860;2023-04-06T09:45:00;94732.47;;;4.78;31.61
74921;BME280;63483;47.384;8.860;2023-04-06T09:47:26;94728.34;;;4.86;31.34
74921;BME280;63483;47.384;8.860;2023-04-06T09:49:56;94732.47;;;4.78;30.25
74921;BME280;63483;47.384;8.860;2023-04-06T09:52:28;94732.84;;;4.93;31.92
74921;BME280;63483;47.384;8.860;2023-04-06T09:54:59;94728.19;;;4.97;31.39
74921;BME280;63483;47.384;8.860;2023-04-06T10:00:05;94724.41;;;5.09;30.29
74921;BME280;63483;47.384;8.860;2023-04-06T10:07:57;94734.16;;;5.35;29.06
74921;BME280;63483;47.384;8.860;2023-04-06T10:10:25;94728.38;;;5.41;30.12
74921;BME280;63483;47.384;8.860;2023-04-06T10:12:50;94729.44;;;5.48;28.92
74921;BME280;63483;47.384;8.860;2023-04-06T10:15:16;94731.69;;;5.61;29.37
74921;BME280;63483;47.384;8.860;2023-04-06T10:17:42;94732.50;;;5.62;29.34
74921;BME280;63483;47.384;8.860;2023-04-06T10:22:41;94733.16;;;5.64;27.97
74921;BME280;63483;47.384;8.860;2023-04-06T10:25:09;94729.91;;;5.80;29.75
74921;BME280;63483;47.384;8.860;2023-04-06T10:27:35;94730.19;;;5.77;29.99
74921;BME280;63483;47.384;8.860;2023-04-06T10:30:05;94727.09;;;5.91;29.60
74921;BME280;63483;47.384;8.860;2023-04-06T10:32:38;94722.47;;;6.03;28.72
74921;BME280;63483;47.384;8.860;2023-04-06T10:35:11;94735.03;;;6.08;29.70
74921;BME280;63483;47.384;8.860;2023-04-06T10:38:03;94725.72;;;6.05;28.77
74921;BME280;63483;47.384;8.860;2023-04-06T10:40:29;94726.28;;;6.09;28.64
74921;BME280;63483;47.384;8.860;2023-04-06T10:43:13;94728.78;;;6.18;29.31
74921;BME280;63483;47.384;8.860;2023-04-06T10:45:40;94722.81;;;6.26;28.70
74921;BME280;63483;47.384;8.860;2023-04-06T10:48:18;94715.09;;;6.34;29.19
74921;BME280;63483;47.384;8.860;2023-04-06T10:50:48;94722.16;;;6.42;29.02
74921;BME280;63483;47.384;8.860;2023-04-06T10:53:27;94724.66;;;6.52;28.61
74921;BME280;63483;47.384;8.860;2023-04-06T10:55:55;94724.00;;;6.32;29.73
74921;BME280;63483;47.384;8.860;2023-04-06T10:58:24;94723.19;;;6.49;28.88
74921;BME280;63483;47.384;8.860;2023-04-06T11:00:50;94721.78;;;6.63;30.31
74921;BME280;63483;47.384;8.860;2023-04-06T11:03:16;94731.47;;;6.71;29.29
74921;BME280;63483;47.384;8.860;2023-04-06T11:05:46;94729.81;;;6.70;28.59
74921;BME280;63483;47.384;8.860;2023-04-06T11:08:31;94719.91;;;6.74;27.74
74921;BME280;63483;47.384;8.860;2023-04-06T11:11:14;94729.19;;;6.76;28.16
74921;BME280;63483;47.384;8.860;2023-04-06T11:13:43;94724.91;;;6.67;26.91
74921;BME280;63483;47.384;8.860;2023-04-06T11:16:17;94729.50;;;6.73;26.85
74921;BME280;63483;47.384;8.860;2023-04-06T11:21:12;94711.75;;;6.95;27.74
74921;BME280;63483;47.384;8.860;2023-04-06T11:23:37;94704.56;;;6.97;27.76
74921;BME280;63483;47.384;8.860;2023-04-06T11:26:03;94710.75;;;6.96;27.09
74921;BME280;63483;47.384;8.860;2023-04-06T11:28:28;94706.59;;;7.11;26.97
74921;BME280;63483;47.384;8.860;2023-04-06T11:30:54;94700.94;;;7.24;25.54
74921;BME280;63483;47.384;8.860;2023-04-06T11:33:21;94699.47;;;7.30;25.38
74921;BME280;63483;47.384;8.860;2023-04-06T11:35:50;94701.16;;;7.39;26.78
74921;BME280;63483;47.384;8.860;2023-04-06T11:38:18;94703.44;;;7.42;25.37
74921;BME280;63483;47.384;8.860;2023-04-06T11:40:44;94704.09;;;7.44;23.83
74921;BME280;63483;47.384;8.860;2023-04-06T11:43:11;94707.34;;;7.38;23.22
74921;BME280;63483;47.384;8.860;2023-04-06T11:45:43;94693.34;;;6.96;22.58
74921;BME280;63483;47.384;8.860;2023-04-06T11:48:18;94687.88;;;7.16;25.92
74921;BME280;63483;47.384;8.860;2023-04-06T11:50:46;94688.25;;;7.29;25.08
74921;BME280;63483;47.384;8.860;2023-04-06T11:53:12;94686.34;;;7.48;24.67
74921;BME280;63483;47.384;8.860;2023-04-06T11:55:38;94693.63;;;7.36;24.23
74921;BME280;63483;47.384;8.860;2023-04-06T11:58:03;94684.56;;;7.56;23.92
74921;BME280;63483;47.384;8.860;2023-04-06T12:00:29;94677.59;;;7.65;24.34
74921;BME280;63483;47.384;8.860;2023-04-06T12:02:59;94672.91;;;7.69;24.28
74921;BME280;63483;47.384;8.860;2023-04-06T12:05:25;94669.50;;;7.77;24.12
74921;BME280;63483;47.384;8.860;2023-04-06T12:07:50;94674.84;;;7.83;22.84
74921;BME280;63483;47.384;8.860;2023-04-06T12:10:16;94681.06;;;7.99;24.33
74921;BME280;63483;47.384;8.860;2023-04-06T12:12:41;94671.59;;;7.81;21.64
74921;BME280;63483;47.384;8.860;2023-04-06T12:15:07;94670.28;;;7.77;21.65
74921;BME280;63483;47.384;8.860;2023-04-06T12:17:32;94665.09;;;7.93;22.41
74921;BME280;63483;47.384;8.860;2023-04-06T12:19:58;94669.34;;;7.86;21.70
74921;BME280;63483;47.384;8.860;2023-04-06T12:22:23;94669.00;;;7.81;23.11
74921;BME280;63483;47.384;8.860;2023-04-06T12:24:48;94661.66;;;7.93;23.34
74921;BME280;63483;47.384;8.860;2023-04-06T12:27:14;94650.09;;;7.96;22.79
74921;BME280;63483;47.384;8.860;2023-04-06T12:29:39;94666.56;;;8.04;22.80
74921;BME280;63483;47.384;8.860;2023-04-06T12:32:05;94664.78;;;8.13;22.08
74921;BME280;63483;47.384;8.860;2023-04-06T12:34:31;94659.91;;;8.10;20.20
74921;BME280;63483;47.384;8.860;2023-04-06T12:36:56;94651.91;;;8.12;21.86
74921;BME280;63483;47.384;8.860;2023-04-06T12:39:22;94662.97;;;7.89;23.27
74921;BME280;63483;47.384;8.860;2023-04-06T12:41:47;94658.59;;;8.06;22.51
74921;BME280;63483;47.384;8.860;2023-04-06T12:44:13;94658.72;;;8.29;22.27
74921;BME280;63483;47.384;8.860;2023-04-06T12:46:38;94669.94;;;8.38;22.24
74921;BME280;63483;47.384;8.860;2023-04-06T12:49:03;94666.41;;;8.22;21.29
74921;BME280;63483;47.384;8.860;2023-04-06T12:51:29;94664.09;;;8.36;21.63
74921;BME280;63483;47.384;8.860;2023-04-06T12:53:56;94657.56;;;8.40;21.08
74921;BME280;63483;47.384;8.860;2023-04-06T12:56:21;94656.91;;;8.38;23.11
74921;BME280;63483;47.384;8.860;2023-04-06T12:58:47;94661.44;;;8.52;23.15
74921;BME280;63483;47.384;8.860;2023-04-06T13:01:13;94656.09;;;8.45;22.26
74921;BME280;63483;47.384;8.860;2023-04-06T13:03:40;94651.69;;;8.38;23.04
74921;BME280;63483;47.384;8.860;2023-04-06T13:06:06;94657.53;;;8.48;22.67
74921;BME280;63483;47.384;8.860;2023-04-06T13:08:33;94652.84;;;8.35;22.76
74921;BME280;63483;47.384;8.860;2023-04-06T13:10:58;94651.00;;;8.44;23.14
74921;BME280;63483;47.384;8.860;2023-04-06T13:13:25;94645.16;;;8.42;22.08